createdAt,value
2022-09-04T00:01:16.991Z,86.92
2022-09-04T00:03:51.268Z,86.97
2022-09-04T00:06:26.144Z,87.11
2022-09-04T00:09:12.751Z,87.10
2022-09-04T00:11:48.317Z,87.38
2022-09-04T00:14:20.305Z,87.07
2022-09-04T00:16:52.708Z,86.79
2022-09-04T00:19:29.121Z,86.56
2022-09-04T00:21:59.581Z,86.47
2022-09-04T00:24:31.589Z,86.24
2022-09-04T00:27:07.093Z,86.69
2022-09-04T00:29:42.294Z,86.89
2022-09-04T00:32:20.041Z,86.74
2022-09-04T00:35:05.176Z,87.27
2022-09-04T00:37:38.089Z,87.69
2022-09-04T00:40:10.771Z,87.85
2022-09-04T00:43:02.082Z,88.01
2022-09-04T00:45:53.127Z,88.06
2022-09-04T00:48:40.253Z,87.91
2022-09-04T00:51:18.114Z,87.87
2022-09-04T00:54:04.643Z,87.90
2022-09-04T00:56:58.850Z,88.09
2022-09-04T00:59:46.478Z,88.05
2022-09-04T01:02:26.075Z,88.10
2022-09-04T01:05:08.787Z,88.25
2022-09-04T01:07:56.630Z,88.24
2022-09-04T01:10:37.077Z,88.13
2022-09-04T01:13:10.613Z,88.16
2022-09-04T01:15:45.827Z,88.10
2022-09-04T01:18:20.354Z,87.91
2022-09-04T01:21:07.288Z,87.25
2022-09-04T01:23:57.274Z,87.53
2022-09-04T01:26:38.626Z,87.38
2022-09-04T01:29:18.761Z,87.35
2022-09-04T01:31:51.923Z,87.14
2022-09-04T01:34:41.201Z,86.95
2022-09-04T01:37:24.777Z,86.81
2022-09-04T01:40:05.103Z,86.56
2022-09-04T01:42:44.034Z,86.17
2022-09-04T01:45:12.743Z,86.15
2022-09-04T01:47:47.793Z,86.16
2022-09-04T01:50:22.169Z,86.10
2022-09-04T01:52:56.611Z,86.10
2022-09-04T01:55:31.385Z,86.43
2022-09-04T01:58:10.195Z,86.46
2022-09-04T02:00:46.100Z,86.37
2022-09-04T02:03:22.949Z,86.43
2022-09-04T02:06:02.634Z,86.57
2022-09-04T02:08:41.454Z,86.46
2022-09-04T02:11:15.835Z,86.56
2022-09-04T02:14:04.384Z,86.30
2022-09-04T02:16:42.757Z,86.51
2022-09-04T02:19:23.857Z,86.57
2022-09-04T02:22:03.917Z,86.46
2022-09-04T02:24:41.109Z,86.71
2022-09-04T02:27:14.007Z,86.73
2022-09-04T02:29:52.342Z,86.62
2022-09-04T02:32:25.897Z,86.48
2022-09-04T02:35:02.080Z,86.45
2022-09-04T02:37:38.366Z,86.62
2022-09-04T02:40:16.165Z,86.70
2022-09-04T02:42:54.170Z,86.51
2022-09-04T02:45:30.461Z,86.71
2022-09-04T02:48:05.823Z,86.35
2022-09-04T02:50:47.993Z,85.98
2022-09-04T02:53:30.121Z,85.72
2022-09-04T02:56:17.406Z,85.40
2022-09-04T02:58:55.509Z,85.26
2022-09-04T03:01:29.705Z,85.70
2022-09-04T03:04:05.882Z,86.15
2022-09-04T03:06:49.802Z,85.98
2022-09-04T03:09:24.481Z,86.32
2022-09-04T03:11:58.669Z,86.28
2022-09-04T03:14:34.653Z,86.25
2022-09-04T03:17:11.522Z,86.90
2022-09-04T03:19:48.196Z,87.03
2022-09-04T03:22:22.897Z,86.85
2022-09-04T03:25:07.866Z,86.76
2022-09-04T03:27:35.969Z,87.10
2022-09-04T03:30:08.357Z,86.60
2022-09-04T03:32:47.516Z,86.87
2022-09-04T03:35:24.155Z,86.90
2022-09-04T03:38:06.813Z,87.01
2022-09-04T03:40:43.250Z,86.99
2022-09-04T03:43:31.680Z,87.18
2022-09-04T03:46:12.628Z,87.10
2022-09-04T03:49:01.356Z,87.31
2022-09-04T03:51:43.408Z,87.24
2022-09-04T03:54:25.213Z,87.26
2022-09-04T03:57:21.747Z,87.08
2022-09-04T04:00:08.558Z,87.09
2022-09-04T04:02:59.749Z,86.65
2022-09-04T04:05:39.720Z,86.66
2022-09-04T04:08:54.383Z,86.67
2022-09-04T04:11:43.276Z,86.63
2022-09-04T04:14:38.723Z,86.68
2022-09-04T04:17:24.481Z,86.71
2022-09-04T04:20:06.112Z,86.64
2022-09-04T04:22:52.389Z,86.44
2022-09-04T04:25:48.822Z,86.72
2022-09-04T04:28:38.569Z,87.00
2022-09-04T04:31:16.594Z,86.60
2022-09-04T04:33:57.773Z,86.91
2022-09-04T04:36:35.208Z,87.31
2022-09-04T04:39:20.525Z,87.27
2022-09-04T04:42:05.773Z,86.95
2022-09-04T04:45:17.125Z,86.42
2022-09-04T04:48:10.308Z,86.64
2022-09-04T04:50:47.682Z,86.82
2022-09-04T04:53:24.001Z,86.68
2022-09-04T04:55:58.978Z,86.73
2022-09-04T04:58:51.923Z,86.58
2022-09-04T05:01:34.241Z,86.97
2022-09-04T05:04:12.401Z,87.73
2022-09-04T05:06:48.515Z,87.75
2022-09-04T05:09:27.072Z,87.17
2022-09-04T05:12:02.307Z,87.49
2022-09-04T05:14:40.961Z,87.08
2022-09-04T05:17:19.993Z,87.33
2022-09-04T05:19:55.093Z,87.10
2022-09-04T05:22:34.390Z,87.01
2022-09-04T05:25:13.310Z,86.74
2022-09-04T05:27:53.876Z,86.57
2022-09-04T05:30:29.513Z,85.90
2022-09-04T05:33:04.456Z,85.61
2022-09-04T05:35:41.522Z,85.01
2022-09-04T05:38:17.638Z,84.31
2022-09-04T05:41:01.678Z,84.68
2022-09-04T05:43:47.426Z,84.29
2022-09-04T05:46:26.609Z,83.92
2022-09-04T05:49:02.382Z,84.05
2022-09-04T05:51:51.672Z,84.47
2022-09-04T05:54:45.642Z,85.28
2022-09-04T05:57:23.208Z,85.32
2022-09-04T06:00:07.652Z,85.17
2022-09-04T06:03:06.539Z,84.84
2022-09-04T06:05:45.322Z,84.74
2022-09-04T06:08:32.747Z,84.68
2022-09-04T06:11:27.010Z,84.63
2022-09-04T06:14:10.002Z,84.11
2022-09-04T06:16:51.687Z,83.57
2022-09-04T06:19:42.420Z,84.16
2022-09-04T06:22:31.796Z,84.69
2022-09-04T06:25:18.230Z,84.41
2022-09-04T06:28:03.555Z,84.19
2022-09-04T06:30:37.730Z,84.07
2022-09-04T06:33:22.832Z,84.02
2022-09-04T06:36:01.273Z,83.70
2022-09-04T06:38:41.383Z,83.73
2022-09-04T06:41:29.773Z,83.68
2022-09-04T06:44:07.373Z,83.57
2022-09-04T06:46:41.041Z,82.46
2022-09-04T06:49:18.346Z,82.05
2022-09-04T06:51:57.540Z,81.50
2022-09-04T06:54:38.865Z,81.37
2022-09-04T06:57:29.256Z,80.34
2022-09-04T07:00:05.227Z,79.88
2022-09-04T07:03:00.934Z,80.54
2022-09-04T07:05:37.951Z,80.32
2022-09-04T07:08:16.820Z,80.08
2022-09-04T07:10:52.198Z,79.71
2022-09-04T07:14:01.119Z,79.89
2022-09-04T07:16:38.877Z,78.99
2022-09-04T07:19:36.341Z,79.22
2022-09-04T07:22:22.583Z,78.38
2022-09-04T07:25:17.230Z,78.01
2022-09-04T07:28:08.304Z,77.71
2022-09-04T07:30:43.185Z,78.07
2022-09-04T07:33:20.779Z,77.45
2022-09-04T07:35:57.684Z,78.11
2022-09-04T07:38:38.332Z,76.82
2022-09-04T07:41:12.613Z,75.76
2022-09-04T07:43:54.834Z,75.93
2022-09-04T07:46:30.260Z,75.93
2022-09-04T07:49:06.259Z,75.25
2022-09-04T07:51:40.131Z,74.99
2022-09-04T07:54:36.689Z,75.56
2022-09-04T07:57:21.225Z,75.80
2022-09-04T08:00:14.078Z,75.73
2022-09-04T08:03:14.040Z,76.24
2022-09-04T08:05:49.214Z,75.24
2022-09-04T08:08:45.477Z,73.96
2022-09-04T08:11:36.849Z,73.10
2022-09-04T08:14:37.955Z,73.54
2022-09-04T08:17:41.366Z,73.75
2022-09-04T08:20:18.983Z,73.43
2022-09-04T08:22:54.118Z,73.44
2022-09-04T08:25:29.055Z,73.51
2022-09-04T08:28:17.399Z,71.98
2022-09-04T08:30:54.917Z,70.08
2022-09-04T08:33:45.097Z,70.63
2022-09-04T08:36:21.470Z,69.41
2022-09-04T08:39:04.603Z,68.73
2022-09-04T08:42:17.426Z,66.89
2022-09-04T08:45:30.161Z,67.69
2022-09-04T08:48:51.034Z,66.16
2022-09-04T08:51:57.102Z,65.40
2022-09-04T08:54:57.725Z,64.22
2022-09-04T08:58:05.537Z,62.17
2022-09-04T09:00:57.592Z,62.14
2022-09-04T09:03:48.305Z,62.34
2022-09-04T09:06:49.470Z,61.88
2022-09-04T09:10:03.910Z,61.64
2022-09-04T09:13:10.542Z,61.13
2022-09-04T09:16:06.687Z,59.57
2022-09-04T09:18:40.489Z,58.56
2022-09-04T09:21:11.438Z,58.84
2022-09-04T09:23:45.807Z,59.13
2022-09-04T09:26:26.482Z,57.14
2022-09-04T09:29:24.530Z,56.30
2022-09-04T09:32:28.825Z,56.04
2022-09-04T09:35:37.077Z,56.56
2022-09-04T09:38:39.280Z,55.07
2022-09-04T09:41:29.833Z,56.26
2022-09-04T09:44:45.074Z,52.68
2022-09-04T09:48:00.431Z,52.99
2022-09-04T09:50:55.914Z,53.05
2022-09-04T09:53:53.385Z,52.49
2022-09-04T09:56:53.993Z,52.89
2022-09-04T09:59:52.462Z,51.17
2022-09-04T10:02:46.390Z,50.47
2022-09-04T10:05:51.650Z,51.94
2022-09-04T10:08:39.233Z,50.27
2022-09-04T10:11:46.075Z,50.84
2022-09-04T10:14:38.551Z,51.70
2022-09-04T10:17:26.672Z,50.90
2022-09-04T10:20:25.655Z,51.76
2022-09-04T10:26:01.470Z,51.45
2022-09-04T10:29:23.853Z,50.19
2022-09-04T10:32:05.320Z,49.89
2022-09-04T10:34:46.901Z,51.20
2022-09-04T10:37:35.820Z,48.08
2022-09-04T10:40:43.128Z,47.85
2022-09-04T10:43:29.108Z,46.98
2022-09-04T10:46:04.025Z,45.61
2022-09-04T10:49:14.986Z,45.30
2022-09-04T10:52:06.662Z,45.03
2022-09-04T10:55:08.030Z,48.44
2022-09-04T10:58:03.603Z,46.37
2022-09-04T11:00:50.172Z,45.33
2022-09-04T11:03:38.614Z,45.69
2022-09-04T11:06:52.778Z,44.29
2022-09-04T11:09:42.683Z,44.77
2022-09-04T11:12:32.405Z,44.21
2022-09-04T11:15:19.530Z,42.43
2022-09-04T11:18:38.427Z,44.11
2022-09-04T11:21:39.782Z,46.21
2022-09-04T11:24:36.445Z,48.60
2022-09-04T11:27:49.212Z,51.24
2022-09-04T11:30:19.972Z,48.88
2022-09-04T11:33:12.999Z,46.99
2022-09-04T11:36:19.915Z,49.44
2022-09-04T11:39:26.225Z,49.60
2022-09-04T11:42:25.672Z,48.98
2022-09-04T11:45:21.163Z,50.94
2022-09-04T11:48:24.346Z,49.65
2022-09-04T11:51:08.154Z,51.17
2022-09-04T11:53:55.264Z,51.13
2022-09-04T11:56:45.024Z,49.84
2022-09-04T11:59:44.539Z,49.53
2022-09-04T12:02:50.853Z,48.94
2022-09-04T12:05:39.345Z,47.46
2022-09-04T12:08:27.424Z,52.09
2022-09-04T12:11:11.777Z,50.61
2022-09-04T12:13:59.246Z,52.78
2022-09-04T12:16:53.803Z,53.12
2022-09-04T12:19:50.712Z,54.35
2022-09-04T12:22:38.412Z,53.09
2022-09-04T12:25:39.869Z,52.30
2022-09-04T12:28:53.886Z,50.48
2022-09-04T12:32:01.942Z,51.14
2022-09-04T12:34:46.816Z,52.64
2022-09-04T12:37:46.975Z,49.00
2022-09-04T12:40:32.053Z,49.24
2022-09-04T12:43:12.319Z,50.56
2022-09-04T12:45:48.889Z,49.79
2022-09-04T12:48:27.770Z,49.82
2022-09-04T12:51:01.851Z,50.34
2022-09-04T12:53:52.651Z,49.25
2022-09-04T12:56:29.009Z,49.12
2022-09-04T12:59:10.949Z,49.76
2022-09-04T13:01:56.796Z,48.43
2022-09-04T13:04:39.496Z,50.44
2022-09-04T13:07:20.986Z,49.63
2022-09-04T13:10:01.387Z,48.59
2022-09-04T13:12:39.125Z,50.77
2022-09-04T13:15:20.455Z,50.25
2022-09-04T13:17:58.479Z,52.42
2022-09-04T13:20:40.179Z,52.26
2022-09-04T13:23:25.778Z,53.39
2022-09-04T13:26:13.261Z,52.74
2022-09-04T13:28:58.753Z,51.26
2022-09-04T13:31:51.131Z,51.37
2022-09-04T13:34:28.261Z,51.03
2022-09-04T13:37:09.947Z,51.42
2022-09-04T13:40:00.977Z,50.38
2022-09-04T13:42:52.388Z,49.78
2022-09-04T13:45:24.162Z,48.61
2022-09-04T13:47:56.949Z,50.65
2022-09-04T13:50:31.501Z,50.67
2022-09-04T13:53:11.323Z,47.50
2022-09-04T13:55:42.555Z,48.86
2022-09-04T13:58:19.926Z,52.16
2022-09-04T14:00:51.304Z,51.03
2022-09-04T14:03:32.258Z,48.89
2022-09-04T14:06:00.894Z,51.88
2022-09-04T14:08:31.696Z,50.51
2022-09-04T14:11:37.961Z,49.99
2022-09-04T14:14:22.321Z,51.89
2022-09-04T14:16:52.675Z,48.57
2022-09-04T14:19:37.273Z,52.04
2022-09-04T14:22:18.546Z,48.58
2022-09-04T14:24:56.709Z,50.10
2022-09-04T14:27:33.662Z,49.75
2022-09-04T14:30:07.157Z,48.96
2022-09-04T14:32:57.608Z,50.06
2022-09-04T14:35:32.780Z,49.75
2022-09-04T14:38:29.237Z,51.26
2022-09-04T14:41:11.412Z,51.05
2022-09-04T14:43:49.123Z,49.59
2022-09-04T14:46:28.428Z,49.63
2022-09-04T14:49:03.696Z,50.57
2022-09-04T14:51:35.478Z,48.55
2022-09-04T14:54:04.722Z,48.02
2022-09-04T14:56:41.039Z,49.34
2022-09-04T14:59:14.969Z,49.92
2022-09-04T15:02:02.137Z,51.04
2022-09-04T15:04:35.327Z,48.53
2022-09-04T15:07:17.502Z,49.49
2022-09-04T15:09:47.819Z,51.98
2022-09-04T15:12:24.992Z,50.15
2022-09-04T15:14:58.428Z,47.29
2022-09-04T15:17:30.039Z,49.01
2022-09-04T15:20:02.741Z,47.79
2022-09-04T15:22:37.750Z,48.13
2022-09-04T15:25:09.187Z,46.77
2022-09-04T15:27:45.016Z,43.77
2022-09-04T15:30:21.109Z,46.73
2022-09-04T15:32:51.003Z,44.15
2022-09-04T15:35:26.303Z,42.63
2022-09-04T15:38:07.744Z,43.58
2022-09-04T15:40:39.181Z,44.08
2022-09-04T15:43:19.874Z,43.60
2022-09-04T15:45:57.053Z,43.56
2022-09-04T15:48:41.506Z,45.24
2022-09-04T15:51:23.239Z,46.59
2022-09-04T15:54:20.899Z,45.47
2022-09-04T15:56:59.855Z,45.43
2022-09-04T15:59:37.252Z,45.98
2022-09-04T16:02:13.079Z,47.04
2022-09-04T16:04:50.030Z,47.22
2022-09-04T16:07:35.720Z,47.73
2022-09-04T16:10:14.381Z,48.86
2022-09-04T16:12:50.799Z,49.17
2022-09-04T16:15:27.276Z,50.04
2022-09-04T16:17:56.661Z,51.29
2022-09-04T16:20:34.507Z,51.24
2022-09-04T16:23:08.344Z,51.63
2022-09-04T16:25:40.375Z,51.53
2022-09-04T16:28:15.003Z,52.03
2022-09-04T16:30:47.445Z,51.52
2022-09-04T16:33:28.115Z,51.41
2022-09-04T16:36:01.185Z,52.42
2022-09-04T16:38:33.658Z,52.95
2022-09-04T16:41:08.439Z,52.51
2022-09-04T16:43:36.772Z,53.04
2022-09-04T16:46:16.402Z,53.46
2022-09-04T16:48:51.046Z,53.83
2022-09-04T16:51:40.914Z,54.15
2022-09-04T16:54:14.174Z,54.22
2022-09-04T16:56:49.808Z,54.23
2022-09-04T16:59:26.084Z,54.70
2022-09-04T17:02:01.916Z,54.48
2022-09-04T17:04:40.121Z,54.89
2022-09-04T17:07:16.515Z,53.70
2022-09-04T17:09:52.625Z,53.96
2022-09-04T17:12:32.754Z,53.24
2022-09-04T17:15:11.555Z,52.88
2022-09-04T17:17:45.706Z,52.65
2022-09-04T17:20:23.854Z,52.79
2022-09-04T17:28:58.279Z,53.46
2022-09-04T17:29:04.018Z,53.53
2022-09-04T17:29:34.627Z,53.99
2022-09-04T17:31:58.195Z,54.72
2022-09-04T17:40:40.821Z,56.79
2022-09-04T17:40:44.404Z,55.54
2022-09-04T17:43:37.770Z,58.34
2022-09-04T17:46:26.588Z,59.11
2022-09-04T17:48:56.303Z,59.98
2022-09-04T17:51:28.864Z,60.93
2022-09-04T17:53:59.455Z,61.68
2022-09-04T17:56:32.774Z,62.03
2022-09-04T17:59:06.271Z,62.55
2022-09-04T18:01:40.624Z,63.07
2022-09-04T18:04:22.594Z,63.64
2022-09-04T18:07:35.676Z,64.20
2022-09-04T18:10:04.102Z,65.07
2022-09-04T18:12:37.149Z,65.49
2022-09-04T18:15:33.515Z,65.29
2022-09-04T18:18:10.138Z,65.44
2022-09-04T18:20:41.433Z,65.65
2022-09-04T18:23:24.939Z,66.34
2022-09-04T18:25:56.795Z,67.13
2022-09-04T18:28:33.624Z,68.87
2022-09-04T18:37:09.235Z,68.44
2022-09-04T18:37:26.215Z,68.79
2022-09-04T18:37:44.601Z,69.16
2022-09-04T18:40:06.317Z,70.03
2022-09-04T18:50:21.947Z,70.23
2022-09-04T18:50:43.620Z,71.77
2022-09-04T18:50:43.620Z,71.36
2022-09-04T18:51:25.520Z,71.91
2022-09-04T18:53:57.592Z,72.27
2022-09-04T18:56:30.395Z,72.71
2022-09-04T18:59:03.199Z,73.09
2022-09-04T19:01:41.333Z,73.18
2022-09-04T19:04:36.909Z,73.97
2022-09-04T19:07:10.100Z,73.82
2022-09-04T19:09:55.864Z,74.24
2022-09-04T19:12:35.717Z,73.98
2022-09-04T19:15:36.342Z,74.05
2022-09-04T19:18:14.321Z,74.17
2022-09-04T19:20:48.185Z,74.35
2022-09-04T19:23:27.234Z,74.59
2022-09-04T19:25:59.780Z,74.65
2022-09-04T19:28:52.385Z,75.07
2022-09-04T19:31:29.995Z,75.84
2022-09-04T19:34:04.965Z,76.26
2022-09-04T19:36:38.058Z,76.12
2022-09-04T19:45:53.537Z,76.61
2022-09-04T19:46:01.431Z,76.63
2022-09-04T19:46:13.206Z,77.00
2022-09-04T19:48:11.741Z,77.11
2022-09-04T19:53:21.497Z,77.53
2022-09-04T19:53:42.413Z,78.21
2022-09-04T19:56:25.034Z,78.26
2022-09-04T19:58:59.034Z,78.37
2022-09-04T20:01:39.505Z,78.75
2022-09-04T20:04:12.263Z,78.58
2022-09-04T20:06:48.008Z,78.96
2022-09-04T20:09:26.162Z,79.85
2022-09-04T20:12:00.021Z,80.17
2022-09-04T20:14:32.703Z,80.82
2022-09-04T20:17:21.867Z,80.17
2022-09-04T20:19:55.030Z,80.27
2022-09-04T20:22:36.158Z,80.36
2022-09-04T20:25:26.286Z,80.44
2022-09-04T20:27:58.714Z,80.71
2022-09-04T20:30:26.698Z,80.51
2022-09-04T20:33:01.718Z,80.47
2022-09-04T20:35:35.682Z,80.26
2022-09-04T20:38:23.564Z,80.89
2022-09-04T20:40:56.146Z,81.25
2022-09-04T20:43:31.658Z,81.30
2022-09-04T20:50:38.837Z,81.32
2022-09-04T20:52:52.612Z,81.63
2022-09-04T20:52:56.683Z,81.63
2022-09-04T20:55:06.246Z,81.33
2022-09-04T21:00:46.755Z,80.98
2022-09-04T21:03:20.357Z,81.14
2022-09-04T21:03:45.634Z,81.42
2022-09-04T21:06:30.889Z,81.88
2022-09-04T21:09:12.026Z,81.67
2022-09-04T21:11:43.314Z,82.12
2022-09-04T21:14:18.197Z,82.23
2022-09-04T21:17:29.225Z,82.24
2022-09-04T21:20:18.143Z,82.51
2022-09-04T21:23:06.120Z,82.42
2022-09-04T21:25:48.920Z,82.50
2022-09-04T21:28:43.556Z,82.57
2022-09-04T21:31:25.322Z,82.51
2022-09-04T21:34:10.524Z,82.54
2022-09-04T21:36:42.094Z,82.21
2022-09-04T21:39:36.395Z,82.39
2022-09-04T21:42:31.493Z,81.89
2022-09-04T21:45:24.468Z,81.35
2022-09-04T21:48:23.583Z,81.70
2022-09-04T21:50:59.042Z,82.22
2022-09-04T21:54:09.944Z,82.50
2022-09-04T22:02:30.335Z,82.59
2022-09-04T22:02:41.526Z,82.98
2022-09-04T22:03:31.616Z,82.97
2022-09-04T22:06:09.024Z,82.78
2022-09-04T22:13:31.371Z,82.95
2022-09-04T22:13:38.856Z,83.03
2022-09-04T22:14:57.290Z,83.26
2022-09-04T22:17:43.043Z,82.99
2022-09-04T22:20:39.555Z,83.10
2022-09-04T22:23:54.431Z,82.81
2022-09-04T22:26:34.464Z,83.39
2022-09-04T22:29:26.793Z,83.45
2022-09-04T22:32:39.923Z,82.72
2022-09-04T22:35:48.701Z,82.99
2022-09-04T22:39:08.176Z,83.25
2022-09-04T22:42:08.958Z,83.41
2022-09-04T22:45:09.289Z,83.16
2022-09-04T22:48:02.641Z,83.31
2022-09-04T22:50:49.244Z,84.39
2022-09-04T22:53:49.902Z,84.09
2022-09-04T22:56:25.842Z,84.75
2022-09-04T22:59:26.119Z,84.76
2022-09-04T23:02:19.243Z,84.91
2022-09-04T23:05:04.489Z,84.71
2022-09-04T23:13:42.377Z,84.83
2022-09-04T23:13:51.184Z,84.57
2022-09-04T23:14:32.737Z,84.10
2022-09-04T23:17:28.284Z,83.45
2022-09-04T23:25:49.010Z,82.82
2022-09-04T23:26:42.859Z,82.99
2022-09-04T23:27:09.091Z,83.31
2022-09-04T23:30:02.109Z,82.75
2022-09-04T23:33:00.079Z,83.69
2022-09-04T23:35:42.258Z,83.94
2022-09-04T23:38:37.467Z,84.40
2022-09-04T23:41:13.578Z,84.13
2022-09-04T23:44:15.138Z,84.11
2022-09-04T23:47:07.936Z,84.96
2022-09-04T23:50:05.799Z,84.60
2022-09-04T23:52:48.695Z,85.51
2022-09-04T23:55:39.938Z,85.44
2022-09-04T23:58:56.638Z,85.41
